GOSM

Ouro Sogui Airport

Matam, Senegal
METAR GOSM 201200Z 16004KT CAVOK 25/20 Q1016
Observed Flight Rules
Oct-20 @ 12:00 UTC (52 minutes ago) Visual Flight Rules
Wind Visibility Clouds
160° at 4 knots 10,000+ meters
  • Clear skies
Temperatures Readings
Current 25°C / 77°F
Dewpoint 20°C / 68°F
Humidity 74%
Altimeter 30" Hg
Pressure 1016 hPa
Elevation 17
METAR GOSM 201200Z 16004KT CAVOK 25/20 Q1016
Observed Flight Rules
Oct-20 @ 12:00 UTC
(52 minutes ago)
VFR
Wind Visibility
160° at 4 knots 10,000+ meters
Clouds
  • Clear skies
Temperature Dewpoint
25°C / 77°F 20°C / 68°F
Humidity Altimeter Pressure
74% 30" Hg 1016 hPa